createdAt,value
2019-04-25T00:01:52.286Z,6.25
2019-04-25T00:04:21.557Z,5.87
2019-04-25T00:06:50.205Z,5.42
2019-04-25T00:09:21.905Z,6.03
2019-04-25T00:11:52.311Z,6.35
2019-04-25T00:14:22.590Z,6.05
2019-04-25T00:16:51.885Z,6.30
2019-04-25T00:19:21.967Z,5.65
2019-04-25T00:22:02.079Z,6.20
2019-04-25T00:24:32.504Z,6.53
2019-04-25T00:27:02.184Z,5.92
2019-04-25T00:29:31.876Z,6.80
2019-04-25T00:32:01.684Z,5.30
2019-04-25T00:34:31.637Z,6.35
2019-04-25T00:37:02.336Z,6.42
2019-04-25T00:39:31.904Z,5.72
2019-04-25T00:42:02.144Z,5.90
2019-04-25T00:44:31.964Z,5.25
2019-04-25T00:47:02.314Z,6.05
2019-04-25T00:49:32.229Z,5.30
2019-04-25T00:52:02.027Z,5.46
2019-04-25T00:54:31.355Z,5.35
2019-04-25T00:57:02.162Z,5.83
2019-04-25T00:59:38.561Z,5.37
2019-04-25T01:02:18.038Z,5.64
2019-04-25T01:04:47.208Z,5.40
2019-04-25T01:07:16.211Z,6.65
2019-04-25T01:09:45.666Z,5.97
2019-04-25T01:12:16.094Z,5.88
2019-04-25T01:14:45.685Z,5.87
2019-04-25T01:17:18.130Z,5.92
2019-04-25T01:19:46.843Z,5.97
2019-04-25T01:22:16.737Z,5.30
2019-04-25T01:24:45.709Z,5.40
2019-04-25T01:27:15.269Z,5.65
2019-04-25T01:29:44.496Z,5.45
2019-04-25T01:32:14.881Z,5.45
2019-04-25T01:34:45.151Z,6.17
2019-04-25T01:37:15.484Z,5.62
2019-04-25T01:39:49.148Z,5.72
2019-04-25T01:42:18.877Z,5.65
2019-04-25T01:44:49.431Z,5.75
2019-04-25T01:47:19.239Z,6.05
2019-04-25T01:49:48.957Z,5.92
2019-04-25T01:52:18.677Z,6.30
2019-04-25T01:55:07.524Z,5.80
2019-04-25T01:57:37.237Z,5.67
2019-04-25T02:00:07.012Z,6.50
2019-04-25T02:02:58.594Z,5.50
2019-04-25T02:05:27.001Z,5.55
2019-04-25T02:07:55.828Z,6.87
2019-04-25T02:10:25.362Z,5.90
2019-04-25T02:12:56.321Z,6.00
2019-04-25T02:15:26.844Z,6.40
2019-04-25T02:17:57.871Z,6.85
2019-04-25T02:20:25.956Z,5.70
2019-04-25T02:22:55.347Z,5.95
2019-04-25T02:25:25.418Z,5.90
2019-04-25T02:27:55.699Z,6.85
2019-04-25T02:30:25.513Z,6.35
2019-04-25T02:32:58.374Z,6.20
2019-04-25T02:35:26.436Z,5.92
2019-04-25T02:37:57.971Z,5.63
2019-04-25T02:40:25.281Z,5.95
2019-04-25T02:42:55.789Z,6.22
2019-04-25T02:45:31.837Z,6.45
2019-04-25T02:48:17.931Z,5.70
2019-04-25T02:50:51.031Z,5.95
2019-04-25T02:53:37.309Z,5.50
2019-04-25T02:56:26.332Z,5.60
2019-04-25T02:58:36.650Z,5.90
2019-04-25T03:01:18.477Z,5.90
2019-04-25T03:03:38.317Z,6.05
2019-04-25T03:06:09.277Z,6.30
2019-04-25T03:08:37.565Z,5.65
2019-04-25T03:11:07.457Z,5.72
2019-04-25T03:13:36.594Z,6.53
2019-04-25T03:16:08.945Z,5.75
2019-04-25T03:18:40.918Z,6.12
2019-04-25T03:21:17.729Z,5.22
2019-04-25T03:23:48.840Z,5.62
2019-04-25T03:26:17.451Z,5.40
2019-04-25T03:28:46.041Z,5.83
2019-04-25T03:31:21.903Z,5.78
2019-04-25T03:33:45.860Z,5.35
2019-04-25T03:36:16.998Z,6.55
2019-04-25T03:38:45.329Z,6.30
2019-04-25T03:41:14.767Z,5.47
2019-04-25T03:43:44.896Z,5.65
2019-04-25T03:46:14.302Z,5.33
2019-04-25T03:48:44.129Z,6.92
2019-04-25T03:51:15.390Z,6.30
2019-04-25T03:53:43.835Z,5.80
2019-04-25T03:56:12.957Z,6.17
2019-04-25T03:58:43.971Z,5.80
2019-04-25T04:01:13.815Z,5.50
2019-04-25T04:03:43.969Z,5.53
2019-04-25T04:06:15.240Z,6.37
2019-04-25T04:08:45.501Z,5.90
2019-04-25T04:11:15.330Z,6.50
2019-04-25T04:13:44.380Z,6.58
2019-04-25T04:16:15.721Z,6.78
2019-04-25T04:18:46.030Z,5.15
2019-04-25T04:21:19.238Z,5.80
2019-04-25T04:24:06.151Z,6.00
2019-04-25T04:26:34.921Z,6.22
2019-04-25T04:29:04.737Z,5.25
2019-04-25T04:31:33.569Z,6.00
2019-04-25T04:34:03.666Z,5.55
2019-04-25T04:36:33.843Z,5.20
2019-04-25T04:39:03.903Z,5.40
2019-04-25T04:41:33.894Z,5.70
2019-04-25T04:44:04.109Z,6.10
2019-04-25T04:46:34.061Z,5.67
2019-04-25T04:49:03.889Z,5.87
2019-04-25T04:51:33.567Z,5.25
2019-04-25T04:54:03.419Z,6.62
2019-04-25T04:56:34.063Z,5.87
2019-04-25T04:59:03.646Z,5.72
2019-04-25T05:01:34.104Z,5.70
2019-04-25T05:04:10.605Z,5.03
2019-04-25T05:06:43.916Z,5.65
2019-04-25T05:09:15.292Z,5.60
2019-04-25T05:11:44.386Z,5.62
2019-04-25T05:14:14.890Z,5.15
2019-04-25T05:16:43.310Z,5.33
2019-04-25T05:19:12.904Z,5.05
2019-04-25T05:21:43.529Z,5.90
2019-04-25T05:24:13.477Z,5.17
2019-04-25T05:26:44.017Z,6.50
2019-04-25T05:29:13.981Z,5.42
2019-04-25T05:31:45.642Z,6.03
2019-04-25T05:34:15.753Z,5.72
2019-04-25T05:36:44.551Z,5.62
2019-04-25T05:39:16.319Z,5.53
2019-04-25T05:41:47.866Z,5.17
2019-04-25T05:44:16.936Z,5.33
2019-04-25T05:46:45.594Z,5.50
2019-04-25T05:49:15.463Z,6.05
2019-04-25T05:51:44.270Z,5.85
2019-04-25T05:54:14.081Z,5.87
2019-04-25T05:56:43.810Z,5.37
2019-04-25T05:59:13.457Z,5.95
2019-04-25T06:01:43.436Z,5.22
2019-04-25T06:04:13.927Z,5.30
2019-04-25T06:06:42.646Z,6.25
2019-04-25T06:09:26.187Z,5.53
2019-04-25T06:11:56.674Z,5.17
2019-04-25T06:14:26.242Z,5.50
2019-04-25T06:16:56.592Z,5.95
2019-04-25T06:19:43.529Z,5.45
2019-04-25T06:22:15.147Z,5.23
2019-04-25T06:24:51.468Z,5.58
2019-04-25T06:27:22.108Z,5.00
2019-04-25T06:29:58.993Z,5.33
2019-04-25T06:32:24.735Z,4.97
2019-04-25T06:34:54.240Z,4.65
2019-04-25T06:37:24.621Z,5.55
2019-04-25T06:39:53.687Z,4.85
2019-04-25T06:42:23.062Z,5.47
2019-04-25T06:44:54.444Z,5.55
2019-04-25T06:47:44.277Z,5.67
2019-04-25T06:50:13.648Z,5.00
2019-04-25T06:52:44.875Z,5.55
2019-04-25T06:55:15.132Z,5.53
2019-04-25T06:57:45.948Z,4.83
2019-04-25T07:00:17.529Z,5.58
2019-04-25T07:02:46.111Z,5.37
2019-04-25T07:05:26.590Z,4.92
2019-04-25T07:07:46.084Z,5.40
2019-04-25T07:10:15.096Z,4.77
2019-04-25T07:12:44.360Z,5.30
2019-04-25T07:15:14.592Z,4.87
2019-04-25T07:17:43.587Z,4.92
2019-04-25T07:20:15.152Z,5.86
2019-04-25T07:22:43.825Z,5.22
2019-04-25T07:25:14.211Z,5.83
2019-04-25T07:27:44.794Z,4.95
2019-04-25T07:30:26.883Z,5.30
2019-04-25T07:32:47.966Z,5.03
2019-04-25T07:35:16.651Z,5.58
2019-04-25T07:37:45.240Z,6.90
2019-04-25T07:40:14.851Z,6.30
2019-04-25T07:42:43.975Z,6.10
2019-04-25T07:45:14.063Z,6.03
2019-04-25T07:47:44.165Z,4.78
2019-04-25T07:50:15.095Z,4.80
2019-04-25T07:52:44.328Z,4.83
2019-04-25T07:55:13.814Z,5.10
2019-04-25T07:57:44.203Z,5.35
2019-04-25T08:00:16.051Z,5.75
2019-04-25T08:02:44.724Z,5.17
2019-04-25T08:05:16.104Z,5.23
2019-04-25T08:07:44.764Z,5.05
2019-04-25T08:10:14.591Z,4.95
2019-04-25T08:12:44.425Z,5.55
2019-04-25T08:15:20.596Z,6.07
2019-04-25T08:17:56.860Z,4.60
2019-04-25T08:20:26.509Z,5.80
2019-04-25T08:22:58.448Z,5.97
2019-04-25T08:25:25.811Z,4.95
2019-04-25T08:27:55.214Z,4.75
2019-04-25T08:30:24.454Z,6.00
2019-04-25T08:32:54.064Z,4.92
2019-04-25T08:35:24.061Z,4.92
2019-04-25T08:37:53.722Z,4.83
2019-04-25T08:40:23.769Z,5.00
2019-04-25T08:42:53.796Z,5.35
2019-04-25T08:45:24.442Z,5.50
2019-04-25T08:47:53.776Z,5.15
2019-04-25T08:50:32.988Z,4.83
2019-04-25T08:53:00.850Z,5.15
2019-04-25T08:55:47.919Z,5.75
2019-04-25T08:58:20.799Z,5.33
2019-04-25T09:01:04.028Z,5.20
2019-04-25T09:03:44.312Z,4.97
2019-04-25T09:06:13.670Z,4.40
2019-04-25T09:08:44.015Z,5.08
2019-04-25T09:11:13.338Z,4.90
2019-04-25T09:13:43.477Z,5.47
2019-04-25T09:16:13.503Z,5.20
2019-04-25T09:18:44.304Z,4.65
2019-04-25T09:21:14.239Z,5.08
2019-04-25T09:23:43.726Z,4.50
2019-04-25T09:26:14.308Z,5.10
2019-04-25T09:28:45.297Z,4.72
2019-04-25T09:31:13.948Z,4.58
2019-04-25T09:33:45.044Z,4.70
2019-04-25T09:36:14.184Z,4.75
2019-04-25T09:38:46.674Z,4.87
2019-04-25T09:41:13.983Z,4.15
2019-04-25T09:43:45.589Z,4.83
2019-04-25T09:46:15.531Z,5.53
2019-04-25T09:49:01.951Z,4.50
2019-04-25T09:51:33.614Z,5.78
2019-04-25T09:54:04.181Z,4.65
2019-04-25T09:56:38.244Z,4.30
2019-04-25T09:59:11.567Z,4.58
2019-04-25T10:01:41.771Z,4.95
2019-04-25T10:04:10.526Z,5.13
2019-04-25T10:06:39.186Z,5.15
2019-04-25T10:09:10.123Z,4.97
2019-04-25T10:11:39.859Z,5.03
2019-04-25T10:14:24.489Z,5.15
2019-04-25T10:16:53.921Z,4.78
2019-04-25T10:19:23.548Z,4.75
2019-04-25T10:21:53.883Z,5.28
2019-04-25T10:24:23.154Z,4.63
2019-04-25T10:26:53.555Z,5.10
2019-04-25T10:29:22.107Z,4.22
2019-04-25T10:31:51.283Z,4.67
2019-04-25T10:34:20.146Z,4.33
2019-04-25T10:36:49.017Z,4.83
2019-04-25T10:39:17.673Z,6.03
2019-04-25T10:41:48.131Z,4.17
2019-04-25T10:44:16.911Z,5.53
2019-04-25T10:46:47.142Z,4.70
2019-04-25T10:49:15.995Z,4.97
2019-04-25T10:51:45.768Z,5.17
2019-04-25T10:54:14.752Z,4.87
2019-04-25T10:56:45.719Z,4.05
2019-04-25T10:59:14.452Z,4.37
2019-04-25T11:01:45.087Z,4.22
2019-04-25T11:04:15.292Z,4.35
2019-04-25T11:06:45.379Z,4.35
2019-04-25T11:09:18.896Z,4.25
2019-04-25T11:11:48.159Z,4.85
2019-04-25T11:14:16.855Z,5.20
2019-04-25T11:16:46.598Z,4.65
2019-04-25T11:19:15.423Z,5.00
2019-04-25T11:21:45.303Z,3.85
2019-04-25T11:24:14.402Z,4.35
2019-04-25T11:26:47.171Z,4.03
2019-04-25T11:29:14.971Z,5.20
2019-04-25T11:31:46.172Z,4.55
2019-04-25T11:34:17.208Z,4.65
2019-04-25T11:36:46.033Z,4.85
2019-04-25T11:39:23.932Z,4.40
2019-04-25T11:41:54.659Z,4.28
2019-04-25T11:44:24.560Z,4.25
2019-04-25T11:46:53.351Z,4.43
2019-04-25T11:49:23.864Z,4.72
2019-04-25T11:51:52.546Z,4.33
2019-04-25T11:54:21.203Z,4.53
2019-04-25T11:56:50.681Z,5.37
2019-04-25T11:59:19.581Z,4.50
2019-04-25T12:01:48.182Z,5.37
2019-04-25T12:04:16.814Z,4.42
2019-04-25T12:06:47.374Z,5.17
2019-04-25T12:09:15.638Z,4.33
2019-04-25T12:11:46.753Z,4.65
2019-04-25T12:14:14.858Z,4.83
2019-04-25T12:16:46.078Z,5.05
2019-04-25T12:19:14.015Z,3.83
2019-04-25T12:21:43.760Z,3.70
2019-04-25T12:24:13.693Z,4.30
2019-04-25T12:26:45.241Z,3.98
2019-04-25T12:29:14.276Z,4.20
2019-04-25T12:31:45.512Z,4.63
2019-04-25T12:34:14.159Z,4.58
2019-04-25T12:36:44.348Z,4.33
2019-04-25T12:39:14.072Z,4.50
2019-04-25T12:41:45.635Z,4.55
2019-04-25T12:44:14.842Z,4.85
2019-04-25T12:46:46.026Z,3.67
2019-04-25T12:49:15.251Z,5.08
2019-04-25T12:51:43.992Z,4.23
2019-04-25T12:54:13.823Z,4.60
2019-04-25T12:56:44.203Z,4.08
2019-04-25T12:59:12.731Z,4.53
2019-04-25T13:01:42.938Z,4.37
2019-04-25T13:04:11.702Z,3.90
2019-04-25T13:06:40.396Z,4.37
2019-04-25T13:09:11.637Z,4.20
2019-04-25T13:11:40.321Z,4.57
2019-04-25T13:14:08.904Z,4.03
2019-04-25T13:16:38.908Z,4.00
2019-04-25T13:19:17.944Z,4.20
2019-04-25T13:21:38.994Z,3.95
2019-04-25T13:24:07.929Z,4.33
2019-04-25T13:26:40.705Z,4.03
2019-04-25T13:29:21.290Z,4.65
2019-04-25T13:31:58.588Z,3.73
2019-04-25T13:34:36.701Z,4.10
2019-04-25T13:37:24.849Z,4.20
2019-04-25T13:39:54.064Z,3.30
2019-04-25T13:42:23.656Z,4.55
2019-04-25T13:44:54.276Z,3.80
2019-04-25T13:47:27.578Z,3.80
2019-04-25T13:49:53.909Z,4.25
2019-04-25T13:52:22.796Z,4.72
2019-04-25T13:54:53.765Z,3.53
2019-04-25T13:57:24.947Z,3.92
2019-04-25T13:59:59.869Z,3.60
2019-04-25T14:02:28.892Z,3.75
2019-04-25T14:04:57.793Z,3.52
2019-04-25T14:07:46.147Z,3.98
2019-04-25T14:10:14.930Z,4.08
2019-04-25T14:12:44.201Z,3.50
2019-04-25T14:15:15.225Z,4.80
2019-04-25T14:17:45.499Z,3.85
2019-04-25T14:20:21.891Z,3.67
2019-04-25T14:22:50.619Z,3.98
2019-04-25T14:25:19.383Z,3.87
2019-04-25T14:27:47.913Z,4.03
2019-04-25T14:30:18.564Z,3.47
2019-04-25T14:32:47.232Z,3.67
2019-04-25T14:35:16.119Z,4.35
2019-04-25T14:37:44.702Z,3.60
2019-04-25T14:40:14.040Z,3.90
2019-04-25T14:42:42.712Z,3.57
2019-04-25T14:45:11.734Z,3.60
2019-04-25T14:47:40.313Z,4.40
2019-04-25T14:50:09.367Z,3.83
2019-04-25T14:52:38.704Z,5.80
2019-04-25T14:55:09.571Z,4.33
2019-04-25T14:57:38.144Z,3.93
2019-04-25T15:00:09.647Z,4.25
2019-04-25T15:02:38.307Z,4.80
2019-04-25T15:05:07.217Z,4.13
2019-04-25T15:07:35.839Z,4.37
2019-04-25T15:10:06.161Z,3.70
2019-04-25T15:12:34.807Z,3.98
2019-04-25T15:15:03.571Z,4.63
2019-04-25T15:17:43.892Z,4.22
2019-04-25T15:20:05.151Z,3.60
2019-04-25T15:22:34.638Z,3.62
2019-04-25T15:25:06.215Z,3.62
2019-04-25T15:27:33.890Z,3.37
2019-04-25T15:30:04.159Z,3.67
2019-04-25T15:32:34.775Z,4.20
2019-04-25T15:35:05.526Z,3.62
2019-04-25T15:37:35.856Z,4.55
2019-04-25T15:40:08.139Z,3.92
2019-04-25T15:42:50.431Z,3.47
2019-04-25T15:45:36.496Z,4.00
2019-04-25T15:48:07.171Z,3.90
2019-04-25T15:50:35.758Z,3.75
2019-04-25T15:53:04.441Z,4.25
2019-04-25T15:55:33.186Z,3.77
2019-04-25T15:58:01.939Z,3.33
2019-04-25T16:00:32.777Z,3.30
2019-04-25T16:03:01.522Z,3.62
2019-04-25T16:05:30.189Z,3.72
2019-04-25T16:07:59.004Z,3.67
2019-04-25T16:10:28.410Z,4.28
2019-04-25T16:12:57.585Z,4.70
2019-04-25T16:15:27.583Z,3.80
2019-04-25T16:17:57.267Z,3.77
2019-04-25T16:20:25.908Z,6.35
2019-04-25T16:22:55.564Z,4.50
2019-04-25T16:25:24.227Z,4.65
2019-04-25T16:27:52.812Z,3.72
2019-04-25T16:30:23.137Z,3.87
2019-04-25T16:32:51.822Z,3.65
2019-04-25T16:35:20.514Z,4.10
2019-04-25T16:37:49.529Z,3.58
2019-04-25T16:40:18.306Z,4.30
2019-04-25T16:42:47.071Z,4.78
2019-04-25T16:45:16.056Z,4.33
2019-04-25T16:47:44.760Z,4.25
2019-04-25T16:50:16.232Z,3.98
2019-04-25T16:52:44.927Z,3.80
2019-04-25T16:55:15.071Z,3.85
2019-04-25T16:57:43.678Z,4.05
2019-04-25T17:00:14.699Z,4.42
2019-04-25T17:02:44.190Z,3.58
2019-04-25T17:05:13.132Z,3.33
2019-04-25T17:07:41.815Z,3.75
2019-04-25T17:10:10.573Z,3.83
2019-04-25T17:12:39.324Z,4.10
2019-04-25T17:15:25.759Z,3.77
2019-04-25T17:18:01.799Z,3.70
2019-04-25T17:20:32.312Z,3.37
2019-04-25T17:23:01.291Z,4.15
2019-04-25T17:25:30.167Z,3.83
2019-04-25T17:27:59.914Z,3.95
2019-04-25T17:30:31.230Z,4.25
2019-04-25T17:33:04.222Z,4.55
2019-04-25T17:35:52.167Z,4.00
2019-04-25T17:38:25.229Z,3.87
2019-04-25T17:40:53.804Z,4.58
2019-04-25T17:43:23.008Z,3.77
2019-04-25T17:45:51.631Z,3.80
2019-04-25T17:48:20.218Z,3.90
2019-04-25T17:50:48.867Z,4.67
2019-04-25T17:53:17.463Z,4.35
2019-04-25T17:55:46.123Z,5.03
2019-04-25T17:58:14.749Z,3.87
2019-04-25T18:00:45.821Z,4.13
2019-04-25T18:03:14.570Z,5.62
2019-04-25T18:05:44.019Z,6.73
2019-04-25T18:08:14.441Z,4.95
2019-04-25T18:10:43.017Z,7.05
2019-04-25T18:13:11.719Z,5.42
2019-04-25T18:15:58.497Z,4.90
2019-04-25T18:18:35.362Z,5.47
2019-04-25T18:21:04.053Z,6.83
2019-04-25T18:23:43.972Z,7.85
2019-04-25T18:26:23.268Z,8.75
2019-04-25T18:29:05.429Z,9.10
2019-04-25T18:31:35.515Z,8.30
2019-04-25T18:34:06.119Z,12.93
2019-04-25T18:36:37.410Z,5.70
2019-04-25T18:39:09.221Z,8.38
2019-04-25T18:41:39.798Z,6.50
2019-04-25T18:44:09.974Z,7.47
2019-04-25T18:46:42.635Z,8.40
2019-04-25T18:49:11.509Z,5.65
2019-04-25T18:51:40.777Z,6.55
2019-04-25T18:54:11.044Z,8.58
2019-04-25T18:56:47.570Z,10.43
2019-04-25T18:59:17.992Z,6.83
2019-04-25T19:01:54.219Z,7.07
2019-04-25T19:04:24.651Z,7.35
2019-04-25T19:06:58.058Z,8.38
2019-04-25T19:09:25.225Z,7.45
2019-04-25T19:11:53.925Z,9.03
2019-04-25T19:14:22.666Z,8.23
2019-04-25T19:16:51.951Z,7.30
2019-04-25T19:19:20.665Z,7.87
2019-04-25T19:21:49.924Z,7.92
2019-04-25T19:24:18.576Z,6.78
2019-04-25T19:26:47.908Z,9.98
2019-04-25T19:29:16.907Z,6.77
2019-04-25T19:31:46.335Z,6.97
2019-04-25T19:34:15.006Z,7.00
2019-04-25T19:36:44.855Z,7.60
2019-04-25T19:39:17.194Z,5.00
2019-04-25T19:41:48.061Z,5.80
2019-04-25T19:44:24.819Z,4.90
2019-04-25T19:46:54.116Z,4.00
2019-04-25T19:49:22.687Z,4.58
2019-04-25T19:51:52.808Z,4.17
2019-04-25T19:54:21.405Z,4.78
2019-04-25T19:56:50.008Z,4.50
2019-04-25T19:59:18.585Z,4.65
2019-04-25T20:01:48.151Z,5.13
2019-04-25T20:04:36.680Z,5.00
2019-04-25T20:07:09.445Z,4.92
2019-04-25T20:09:39.653Z,5.03
2019-04-25T20:12:08.530Z,4.83
2019-04-25T20:14:37.100Z,5.53
2019-04-25T20:17:05.802Z,5.03
2019-04-25T20:19:34.387Z,5.05
2019-04-25T20:22:03.020Z,4.35
2019-04-25T20:24:31.660Z,4.78
2019-04-25T20:27:00.341Z,4.33
2019-04-25T20:29:28.963Z,3.77
2019-04-25T20:31:57.684Z,4.42
2019-04-25T20:34:26.332Z,6.08
2019-04-25T20:36:55.774Z,5.72
2019-04-25T20:39:24.441Z,4.12
2019-04-25T20:41:53.939Z,4.12
2019-04-25T20:44:22.689Z,4.00
2019-04-25T20:46:51.475Z,4.47
2019-04-25T20:49:20.513Z,4.25
2019-04-25T20:51:49.074Z,3.80
2019-04-25T20:54:17.610Z,4.40
2019-04-25T20:56:46.726Z,3.83
2019-04-25T20:59:19.576Z,5.00
2019-04-25T21:01:48.261Z,4.03
2019-04-25T21:04:38.099Z,4.33
2019-04-25T21:07:06.706Z,4.37
2019-04-25T21:09:35.344Z,4.58
2019-04-25T21:12:04.466Z,5.03
2019-04-25T21:14:35.187Z,4.95
2019-04-25T21:17:05.469Z,5.30
2019-04-25T21:19:35.895Z,5.78
2019-04-25T21:22:05.214Z,5.80
2019-04-25T21:24:33.788Z,5.50
2019-04-25T21:27:02.384Z,5.03
2019-04-25T21:29:31.011Z,4.80
2019-04-25T21:32:01.001Z,4.52
2019-04-25T21:34:31.333Z,5.12
2019-04-25T21:37:00.181Z,5.40
2019-04-25T21:39:51.327Z,5.60
2019-04-25T21:42:27.866Z,5.15
2019-04-25T21:44:56.632Z,4.95
2019-04-25T21:47:25.224Z,4.83
2019-04-25T21:49:54.332Z,5.53
2019-04-25T21:52:24.211Z,4.53
2019-04-25T21:54:53.143Z,4.85
2019-04-25T21:57:22.024Z,5.15
2019-04-25T22:00:00.383Z,4.62
2019-04-25T22:02:27.369Z,5.42
2019-04-25T22:04:56.683Z,5.85
2019-04-25T22:07:25.680Z,5.10
2019-04-25T22:09:55.596Z,5.35
2019-04-25T22:12:24.899Z,5.20
2019-04-25T22:14:53.623Z,4.87
2019-04-25T22:17:23.057Z,4.62
2019-04-25T22:19:52.204Z,4.95
2019-04-25T22:22:22.212Z,4.40
2019-04-25T22:24:52.711Z,5.12
2019-04-25T22:27:22.961Z,3.85
2019-04-25T22:29:53.216Z,4.62
2019-04-25T22:32:23.811Z,4.20
2019-04-25T22:34:54.034Z,4.42
2019-04-25T22:37:22.734Z,4.37
2019-04-25T22:39:51.524Z,4.20
2019-04-25T22:42:20.086Z,4.50
2019-04-25T22:44:48.648Z,4.62
2019-04-25T22:47:17.684Z,5.22
2019-04-25T22:49:46.424Z,4.87
2019-04-25T22:52:15.344Z,4.35
2019-04-25T22:54:44.275Z,4.95
2019-04-25T22:57:13.122Z,4.90
2019-04-25T22:59:41.976Z,4.15
2019-04-25T23:02:26.916Z,5.83
2019-04-25T23:05:09.476Z,5.37
2019-04-25T23:07:34.198Z,4.92
2019-04-25T23:10:04.403Z,4.87
2019-04-25T23:12:33.382Z,4.53
2019-04-25T23:15:02.594Z,5.72
2019-04-25T23:17:32.226Z,5.92
2019-04-25T23:20:01.086Z,4.20
2019-04-25T23:22:29.711Z,4.25
2019-04-25T23:25:00.139Z,4.40
2019-04-25T23:27:35.823Z,4.30
2019-04-25T23:30:08.029Z,4.67
2019-04-25T23:32:36.998Z,4.65
2019-04-25T23:35:22.110Z,4.58
2019-04-25T23:37:36.201Z,4.80
2019-04-25T23:40:06.733Z,4.90
2019-04-25T23:42:36.339Z,4.28
2019-04-25T23:45:08.066Z,3.87
2019-04-25T23:47:36.689Z,4.17
2019-04-25T23:50:08.684Z,4.22
2019-04-25T23:52:37.716Z,4.12
2019-04-25T23:55:06.974Z,4.42
2019-04-25T23:57:37.129Z,4.40
